sensor_id;sensor_type;location;lat;lon;timestamp;temperature;humidity
9919;DHT22;4998;51.024;13.828;2023-10-08T00:01:15;22.70;62.70
9919;DHT22;4998;51.024;13.828;2023-10-08T00:03:43;22.70;62.80
9919;DHT22;4998;51.024;13.828;2023-10-08T00:06:14;22.70;62.70
9919;DHT22;4998;51.024;13.828;2023-10-08T00:08:43;22.70;62.90
9919;DHT22;4998;51.024;13.828;2023-10-08T00:11:11;22.70;63.00
9919;DHT22;4998;51.024;13.828;2023-10-08T00:13:38;22.70;63.20
9919;DHT22;4998;51.024;13.828;2023-10-08T00:16:07;22.70;63.20
9919;DHT22;4998;51.024;13.828;2023-10-08T00:18:37;22.70;63.40
9919;DHT22;4998;51.024;13.828;2023-10-08T00:21:06;22.70;63.40
9919;DHT22;4998;51.024;13.828;2023-10-08T00:23:43;22.70;63.60
9919;DHT22;4998;51.024;13.828;2023-10-08T00:26:17;22.70;63.50
9919;DHT22;4998;51.024;13.828;2023-10-08T00:28:54;22.70;63.60
9919;DHT22;4998;51.024;13.828;2023-10-08T00:31:22;22.70;63.80
9919;DHT22;4998;51.024;13.828;2023-10-08T00:33:52;22.70;64.00
9919;DHT22;4998;51.024;13.828;2023-10-08T00:36:20;22.70;64.00
9919;DHT22;4998;51.024;13.828;2023-10-08T00:38:47;22.70;64.20
9919;DHT22;4998;51.024;13.828;2023-10-08T00:41:17;22.60;64.30
9919;DHT22;4998;51.024;13.828;2023-10-08T00:43:47;22.60;64.70
9919;DHT22;4998;51.024;13.828;2023-10-08T00:46:16;22.60;64.80
9919;DHT22;4998;51.024;13.828;2023-10-08T00:48:49;22.60;65.20
9919;DHT22;4998;51.024;13.828;2023-10-08T00:51:20;22.60;65.30
9919;DHT22;4998;51.024;13.828;2023-10-08T00:54:00;22.50;65.30
9919;DHT22;4998;51.024;13.828;2023-10-08T00:56:33;22.50;65.60
9919;DHT22;4998;51.024;13.828;2023-10-08T00:59:23;22.50;66.00
9919;DHT22;4998;51.024;13.828;2023-10-08T01:01:52;22.50;66.30
9919;DHT22;4998;51.024;13.828;2023-10-08T01:04:25;22.40;66.10
9919;DHT22;4998;51.024;13.828;2023-10-08T01:06:54;22.40;66.70
9919;DHT22;4998;51.024;13.828;2023-10-08T01:09:25;22.40;67.00
9919;DHT22;4998;51.024;13.828;2023-10-08T01:12:15;22.30;66.80
9919;DHT22;4998;51.024;13.828;2023-10-08T01:14:47;22.30;67.30
9919;DHT22;4998;51.024;13.828;2023-10-08T01:17:16;22.30;67.20
9919;DHT22;4998;51.024;13.828;2023-10-08T01:19:45;22.30;67.50
9919;DHT22;4998;51.024;13.828;2023-10-08T01:22:18;22.30;67.90
9919;DHT22;4998;51.024;13.828;2023-10-08T01:24:47;22.30;68.40
9919;DHT22;4998;51.024;13.828;2023-10-08T01:27:14;22.30;68.60
9919;DHT22;4998;51.024;13.828;2023-10-08T01:29:47;22.20;68.80
9919;DHT22;4998;51.024;13.828;2023-10-08T01:32:15;22.20;69.30
9919;DHT22;4998;51.024;13.828;2023-10-08T01:34:43;22.10;69.60
9919;DHT22;4998;51.024;13.828;2023-10-08T01:37:13;22.00;70.00
9919;DHT22;4998;51.024;13.828;2023-10-08T01:39:44;21.90;70.50
9919;DHT22;4998;51.024;13.828;2023-10-08T01:42:11;21.80;71.10
9919;DHT22;4998;51.024;13.828;2023-10-08T01:44:44;21.70;71.30
9919;DHT22;4998;51.024;13.828;2023-10-08T01:47:12;21.60;71.80
9919;DHT22;4998;51.024;13.828;2023-10-08T01:49:42;21.50;72.20
9919;DHT22;4998;51.024;13.828;2023-10-08T01:52:10;21.40;72.80
9919;DHT22;4998;51.024;13.828;2023-10-08T01:54:45;21.40;73.60
9919;DHT22;4998;51.024;13.828;2023-10-08T01:57:12;21.20;74.20
9919;DHT22;4998;51.024;13.828;2023-10-08T01:59:40;21.20;74.50
9919;DHT22;4998;51.024;13.828;2023-10-08T02:02:07;21.10;74.60
9919;DHT22;4998;51.024;13.828;2023-10-08T02:04:35;21.00;75.10
9919;DHT22;4998;51.024;13.828;2023-10-08T02:07:02;21.00;75.20
9919;DHT22;4998;51.024;13.828;2023-10-08T02:09:33;20.90;75.10
9919;DHT22;4998;51.024;13.828;2023-10-08T02:12:02;20.80;74.50
9919;DHT22;4998;51.024;13.828;2023-10-08T02:14:29;20.70;74.30
9919;DHT22;4998;51.024;13.828;2023-10-08T02:16:57;20.60;74.00
9919;DHT22;4998;51.024;13.828;2023-10-08T02:19:29;20.50;73.50
9919;DHT22;4998;51.024;13.828;2023-10-08T02:21:57;20.30;73.10
9919;DHT22;4998;51.024;13.828;2023-10-08T02:24:25;20.00;73.00
9919;DHT22;4998;51.024;13.828;2023-10-08T02:26:52;20.00;73.10
9919;DHT22;4998;51.024;13.828;2023-10-08T02:29:28;19.90;72.80
9919;DHT22;4998;51.024;13.828;2023-10-08T02:31:55;19.70;72.70
9919;DHT22;4998;51.024;13.828;2023-10-08T02:34:22;19.60;72.50
9919;DHT22;4998;51.024;13.828;2023-10-08T02:36:49;19.40;72.30
9919;DHT22;4998;51.024;13.828;2023-10-08T02:39:16;19.20;72.50
9919;DHT22;4998;51.024;13.828;2023-10-08T02:41:48;19.00;72.60
9919;DHT22;4998;51.024;13.828;2023-10-08T02:44:16;18.90;73.10
9919;DHT22;4998;51.024;13.828;2023-10-08T02:46:45;18.80;73.60
9919;DHT22;4998;51.024;13.828;2023-10-08T02:49:13;18.70;74.10
9919;DHT22;4998;51.024;13.828;2023-10-08T02:51:45;18.60;74.20
9919;DHT22;4998;51.024;13.828;2023-10-08T02:54:12;18.40;74.30
9919;DHT22;4998;51.024;13.828;2023-10-08T02:56:44;18.30;74.80
9919;DHT22;4998;51.024;13.828;2023-10-08T02:59:12;18.20;75.20
9919;DHT22;4998;51.024;13.828;2023-10-08T03:01:40;18.10;75.70
9919;DHT22;4998;51.024;13.828;2023-10-08T03:04:09;18.10;75.80
9919;DHT22;4998;51.024;13.828;2023-10-08T03:06:44;18.00;76.30
9919;DHT22;4998;51.024;13.828;2023-10-08T03:09:16;17.90;76.70
9919;DHT22;4998;51.024;13.828;2023-10-08T03:11:47;17.90;76.90
9919;DHT22;4998;51.024;13.828;2023-10-08T03:14:14;17.80;77.50
9919;DHT22;4998;51.024;13.828;2023-10-08T03:16:48;17.70;77.60
9919;DHT22;4998;51.024;13.828;2023-10-08T03:19:18;17.60;77.50
9919;DHT22;4998;51.024;13.828;2023-10-08T03:21:46;17.60;77.90
9919;DHT22;4998;51.024;13.828;2023-10-08T03:24:21;17.50;77.90
9919;DHT22;4998;51.024;13.828;2023-10-08T03:26:56;17.50;78.00
9919;DHT22;4998;51.024;13.828;2023-10-08T03:29:32;17.40;78.50
9919;DHT22;4998;51.024;13.828;2023-10-08T03:32:06;17.40;78.90
9919;DHT22;4998;51.024;13.828;2023-10-08T03:34:40;17.40;78.80
9919;DHT22;4998;51.024;13.828;2023-10-08T03:37:09;17.30;78.80
9919;DHT22;4998;51.024;13.828;2023-10-08T03:39:41;17.30;78.60
9919;DHT22;4998;51.024;13.828;2023-10-08T03:42:32;17.20;78.70
9919;DHT22;4998;51.024;13.828;2023-10-08T03:45:06;17.10;78.20
9919;DHT22;4998;51.024;13.828;2023-10-08T03:47:38;17.00;78.00
9919;DHT22;4998;51.024;13.828;2023-10-08T03:50:08;16.90;78.10
9919;DHT22;4998;51.024;13.828;2023-10-08T03:52:36;16.80;78.50
9919;DHT22;4998;51.024;13.828;2023-10-08T03:55:05;16.60;78.20
9919;DHT22;4998;51.024;13.828;2023-10-08T03:57:47;16.50;78.30
9919;DHT22;4998;51.024;13.828;2023-10-08T04:00:22;16.40;78.50
9919;DHT22;4998;51.024;13.828;2023-10-08T04:02:57;16.30;78.50
9919;DHT22;4998;51.024;13.828;2023-10-08T04:05:28;16.10;79.10
9919;DHT22;4998;51.024;13.828;2023-10-08T04:08:06;16.00;78.90
9919;DHT22;4998;51.024;13.828;2023-10-08T04:10:45;15.90;79.00
9919;DHT22;4998;51.024;13.828;2023-10-08T04:13:30;15.70;79.90
9919;DHT22;4998;51.024;13.828;2023-10-08T04:15:57;15.70;79.50
9919;DHT22;4998;51.024;13.828;2023-10-08T04:18:24;15.60;79.90
9919;DHT22;4998;51.024;13.828;2023-10-08T04:20:54;15.50;80.10
9919;DHT22;4998;51.024;13.828;2023-10-08T04:23:30;15.50;80.30
9919;DHT22;4998;51.024;13.828;2023-10-08T04:25:58;15.40;80.00
9919;DHT22;4998;51.024;13.828;2023-10-08T04:28:25;15.30;79.90
9919;DHT22;4998;51.024;13.828;2023-10-08T04:31:00;15.30;80.30
9919;DHT22;4998;51.024;13.828;2023-10-08T04:33:41;15.20;80.40
9919;DHT22;4998;51.024;13.828;2023-10-08T04:36:10;15.10;80.20
9919;DHT22;4998;51.024;13.828;2023-10-08T04:38:43;15.00;80.40
9919;DHT22;4998;51.024;13.828;2023-10-08T04:41:14;14.90;80.70
9919;DHT22;4998;51.024;13.828;2023-10-08T04:43:45;14.90;81.10
9919;DHT22;4998;51.024;13.828;2023-10-08T04:46:15;14.80;81.50
9919;DHT22;4998;51.024;13.828;2023-10-08T04:49:02;14.70;81.50
9919;DHT22;4998;51.024;13.828;2023-10-08T04:51:35;14.70;81.60
9919;DHT22;4998;51.024;13.828;2023-10-08T04:54:10;14.70;82.20
9919;DHT22;4998;51.024;13.828;2023-10-08T04:56:42;14.60;82.00
9919;DHT22;4998;51.024;13.828;2023-10-08T04:59:09;14.60;82.30
9919;DHT22;4998;51.024;13.828;2023-10-08T05:01:37;14.50;82.50
9919;DHT22;4998;51.024;13.828;2023-10-08T05:04:14;14.50;82.70
9919;DHT22;4998;51.024;13.828;2023-10-08T05:06:54;14.40;83.80
9919;DHT22;4998;51.024;13.828;2023-10-08T05:09:49;14.40;83.90
9919;DHT22;4998;51.024;13.828;2023-10-08T05:12:37;14.30;84.00
9919;DHT22;4998;51.024;13.828;2023-10-08T05:15:04;14.30;84.60
9919;DHT22;4998;51.024;13.828;2023-10-08T05:17:58;14.30;84.90
9919;DHT22;4998;51.024;13.828;2023-10-08T05:20:39;14.20;84.80
9919;DHT22;4998;51.024;13.828;2023-10-08T05:23:26;14.20;85.20
9919;DHT22;4998;51.024;13.828;2023-10-08T05:26:19;14.20;86.10
9919;DHT22;4998;51.024;13.828;2023-10-08T05:28:57;14.20;86.10
9919;DHT22;4998;51.024;13.828;2023-10-08T05:31:49;14.20;86.20
9919;DHT22;4998;51.024;13.828;2023-10-08T05:34:36;14.20;86.00
9919;DHT22;4998;51.024;13.828;2023-10-08T05:37:09;14.20;86.50
9919;DHT22;4998;51.024;13.828;2023-10-08T05:40:00;14.20;86.60
9919;DHT22;4998;51.024;13.828;2023-10-08T05:42:44;14.30;87.00
9919;DHT22;4998;51.024;13.828;2023-10-08T05:45:25;14.20;86.80
9919;DHT22;4998;51.024;13.828;2023-10-08T05:47:56;14.30;86.80
9919;DHT22;4998;51.024;13.828;2023-10-08T05:50:40;14.30;87.20
9919;DHT22;4998;51.024;13.828;2023-10-08T05:53:09;14.30;87.00
9919;DHT22;4998;51.024;13.828;2023-10-08T05:56:07;14.30;87.10
9919;DHT22;4998;51.024;13.828;2023-10-08T05:58:54;14.40;87.20
9919;DHT22;4998;51.024;13.828;2023-10-08T06:01:41;14.40;86.90
9919;DHT22;4998;51.024;13.828;2023-10-08T06:04:08;14.40;86.50
9919;DHT22;4998;51.024;13.828;2023-10-08T06:06:57;14.40;86.20
9919;DHT22;4998;51.024;13.828;2023-10-08T06:09:38;14.40;85.70
9919;DHT22;4998;51.024;13.828;2023-10-08T06:12:07;14.40;85.20
9919;DHT22;4998;51.024;13.828;2023-10-08T06:14:45;14.40;85.10
9919;DHT22;4998;51.024;13.828;2023-10-08T06:17:38;14.30;84.80
9919;DHT22;4998;51.024;13.828;2023-10-08T06:20:30;14.30;84.70
9919;DHT22;4998;51.024;13.828;2023-10-08T06:22:56;14.20;84.70
9919;DHT22;4998;51.024;13.828;2023-10-08T06:25:29;14.20;84.60
9919;DHT22;4998;51.024;13.828;2023-10-08T06:27:57;14.10;84.40
9919;DHT22;4998;51.024;13.828;2023-10-08T06:30:25;14.10;84.80
9919;DHT22;4998;51.024;13.828;2023-10-08T06:32:55;14.00;84.70
9919;DHT22;4998;51.024;13.828;2023-10-08T06:35:22;14.00;85.20
9919;DHT22;4998;51.024;13.828;2023-10-08T06:37:53;13.90;85.60
9919;DHT22;4998;51.024;13.828;2023-10-08T06:40:27;13.90;85.50
9919;DHT22;4998;51.024;13.828;2023-10-08T06:43:10;13.90;85.80
9919;DHT22;4998;51.024;13.828;2023-10-08T06:45:43;13.90;86.30
9919;DHT22;4998;51.024;13.828;2023-10-08T06:48:13;13.90;86.60
9919;DHT22;4998;51.024;13.828;2023-10-08T06:50:46;14.00;86.80
9919;DHT22;4998;51.024;13.828;2023-10-08T06:53:13;14.00;87.00
9919;DHT22;4998;51.024;13.828;2023-10-08T06:55:41;14.00;87.00
9919;DHT22;4998;51.024;13.828;2023-10-08T06:58:10;14.00;86.80
9919;DHT22;4998;51.024;13.828;2023-10-08T07:00:40;14.10;87.30
9919;DHT22;4998;51.024;13.828;2023-10-08T07:03:13;14.10;87.30
9919;DHT22;4998;51.024;13.828;2023-10-08T07:05:44;14.10;87.40
9919;DHT22;4998;51.024;13.828;2023-10-08T07:08:24;14.10;87.50
9919;DHT22;4998;51.024;13.828;2023-10-08T07:10:51;14.20;87.70
9919;DHT22;4998;51.024;13.828;2023-10-08T07:13:20;14.20;87.60
9919;DHT22;4998;51.024;13.828;2023-10-08T07:15:48;14.30;88.00
9919;DHT22;4998;51.024;13.828;2023-10-08T07:18:15;14.30;87.60
9919;DHT22;4998;51.024;13.828;2023-10-08T07:20:51;14.30;87.50
9919;DHT22;4998;51.024;13.828;2023-10-08T07:23:20;14.40;87.60
9919;DHT22;4998;51.024;13.828;2023-10-08T07:25:54;14.40;87.70
9919;DHT22;4998;51.024;13.828;2023-10-08T07:28:27;14.50;87.60
9919;DHT22;4998;51.024;13.828;2023-10-08T07:30:55;14.50;87.30
9919;DHT22;4998;51.024;13.828;2023-10-08T07:33:23;14.50;87.00
9919;DHT22;4998;51.024;13.828;2023-10-08T07:36:02;14.60;87.20
9919;DHT22;4998;51.024;13.828;2023-10-08T07:38:38;14.60;87.00
9919;DHT22;4998;51.024;13.828;2023-10-08T07:41:08;14.60;87.00
9919;DHT22;4998;51.024;13.828;2023-10-08T07:43:39;14.60;87.10
9919;DHT22;4998;51.024;13.828;2023-10-08T07:46:07;14.60;87.10
9919;DHT22;4998;51.024;13.828;2023-10-08T07:48:34;14.60;86.90
9919;DHT22;4998;51.024;13.828;2023-10-08T07:51:01;14.60;87.10
9919;DHT22;4998;51.024;13.828;2023-10-08T07:53:29;14.60;87.50
9919;DHT22;4998;51.024;13.828;2023-10-08T07:56:04;14.50;87.50
9919;DHT22;4998;51.024;13.828;2023-10-08T07:58:34;14.60;87.80
9919;DHT22;4998;51.024;13.828;2023-10-08T08:01:05;14.60;88.00
9919;DHT22;4998;51.024;13.828;2023-10-08T08:03:33;14.60;88.40
9919;DHT22;4998;51.024;13.828;2023-10-08T08:06:03;14.70;88.70
9919;DHT22;4998;51.024;13.828;2023-10-08T08:08:32;14.70;89.10
9919;DHT22;4998;51.024;13.828;2023-10-08T08:10:59;14.80;89.10
9919;DHT22;4998;51.024;13.828;2023-10-08T08:13:31;14.90;89.10
9919;DHT22;4998;51.024;13.828;2023-10-08T08:15:59;14.90;89.10
9919;DHT22;4998;51.024;13.828;2023-10-08T08:18:37;14.90;89.40
9919;DHT22;4998;51.024;13.828;2023-10-08T08:21:10;15.00;89.80
9919;DHT22;4998;51.024;13.828;2023-10-08T08:23:41;15.00;89.50
9919;DHT22;4998;51.024;13.828;2023-10-08T08:26:14;15.00;88.90
9919;DHT22;4998;51.024;13.828;2023-10-08T08:28:53;15.00;88.80
9919;DHT22;4998;51.024;13.828;2023-10-08T08:31:22;14.90;88.90
9919;DHT22;4998;51.024;13.828;2023-10-08T08:33:52;14.90;89.10
9919;DHT22;4998;51.024;13.828;2023-10-08T08:36:20;14.90;89.60
9919;DHT22;4998;51.024;13.828;2023-10-08T08:38:46;14.90;89.80
9919;DHT22;4998;51.024;13.828;2023-10-08T08:41:14;14.90;89.90
9919;DHT22;4998;51.024;13.828;2023-10-08T08:43:47;14.90;89.90
9919;DHT22;4998;51.024;13.828;2023-10-08T08:46:14;15.00;90.00
9919;DHT22;4998;51.024;13.828;2023-10-08T08:48:43;15.00;89.80
9919;DHT22;4998;51.024;13.828;2023-10-08T08:51:12;15.00;90.00
9919;DHT22;4998;51.024;13.828;2023-10-08T08:53:40;15.00;89.90
9919;DHT22;4998;51.024;13.828;2023-10-08T08:56:09;15.00;89.90
9919;DHT22;4998;51.024;13.828;2023-10-08T08:58:37;15.00;89.80
9919;DHT22;4998;51.024;13.828;2023-10-08T09:01:11;15.00;89.70
9919;DHT22;4998;51.024;13.828;2023-10-08T09:03:39;15.00;90.00
9919;DHT22;4998;51.024;13.828;2023-10-08T09:06:06;15.00;89.80
9919;DHT22;4998;51.024;13.828;2023-10-08T09:08:36;15.00;89.80
9919;DHT22;4998;51.024;13.828;2023-10-08T09:11:03;15.00;90.00
9919;DHT22;4998;51.024;13.828;2023-10-08T09:13:31;15.00;90.00
9919;DHT22;4998;51.024;13.828;2023-10-08T09:16:07;15.00;90.10
9919;DHT22;4998;51.024;13.828;2023-10-08T09:18:34;15.00;90.30
9919;DHT22;4998;51.024;13.828;2023-10-08T09:21:13;15.00;90.10
9919;DHT22;4998;51.024;13.828;2023-10-08T09:23:43;15.00;90.30
9919;DHT22;4998;51.024;13.828;2023-10-08T09:26:13;15.00;90.10
9919;DHT22;4998;51.024;13.828;2023-10-08T09:28:44;15.00;90.10
9919;DHT22;4998;51.024;13.828;2023-10-08T09:31:13;15.00;90.20
9919;DHT22;4998;51.024;13.828;2023-10-08T09:33:40;15.00;90.40
9919;DHT22;4998;51.024;13.828;2023-10-08T09:36:08;15.00;90.50
9919;DHT22;4998;51.024;13.828;2023-10-08T09:38:46;15.10;90.60
9919;DHT22;4998;51.024;13.828;2023-10-08T09:41:14;15.10;90.70
9919;DHT22;4998;51.024;13.828;2023-10-08T09:43:43;15.10;90.60
9919;DHT22;4998;51.024;13.828;2023-10-08T09:46:16;15.20;90.80
9919;DHT22;4998;51.024;13.828;2023-10-08T09:48:49;15.20;90.90
9919;DHT22;4998;51.024;13.828;2023-10-08T09:51:18;15.30;90.90
9919;DHT22;4998;51.024;13.828;2023-10-08T09:54:11;15.40;90.80
9919;DHT22;4998;51.024;13.828;2023-10-08T09:56:40;15.40;91.30
9919;DHT22;4998;51.024;13.828;2023-10-08T09:59:09;15.50;90.70
9919;DHT22;4998;51.024;13.828;2023-10-08T10:01:37;15.50;90.70
9919;DHT22;4998;51.024;13.828;2023-10-08T10:04:06;15.50;90.70
9919;DHT22;4998;51.024;13.828;2023-10-08T10:06:35;15.50;90.80
9919;DHT22;4998;51.024;13.828;2023-10-08T10:09:05;15.50;90.80
9919;DHT22;4998;51.024;13.828;2023-10-08T10:11:37;15.60;90.80
9919;DHT22;4998;51.024;13.828;2023-10-08T10:14:04;15.60;90.90
9919;DHT22;4998;51.024;13.828;2023-10-08T10:16:32;15.60;91.00
9919;DHT22;4998;51.024;13.828;2023-10-08T10:19:03;15.60;91.10
9919;DHT22;4998;51.024;13.828;2023-10-08T10:21:31;15.70;91.20
9919;DHT22;4998;51.024;13.828;2023-10-08T10:24:00;15.70;91.40
9919;DHT22;4998;51.024;13.828;2023-10-08T10:26:32;15.70;91.40
9919;DHT22;4998;51.024;13.828;2023-10-08T10:29:22;15.80;91.60
9919;DHT22;4998;51.024;13.828;2023-10-08T10:31:53;15.90;91.70
9919;DHT22;4998;51.024;13.828;2023-10-08T10:34:24;16.00;91.70
9919;DHT22;4998;51.024;13.828;2023-10-08T10:36:54;16.10;91.80
9919;DHT22;4998;51.024;13.828;2023-10-08T10:39:28;16.20;91.70
9919;DHT22;4998;51.024;13.828;2023-10-08T10:41:59;16.30;91.50
9919;DHT22;4998;51.024;13.828;2023-10-08T10:44:30;16.40;91.30
9919;DHT22;4998;51.024;13.828;2023-10-08T10:46:58;16.60;91.40
9919;DHT22;4998;51.024;13.828;2023-10-08T10:49:44;16.60;91.30
9919;DHT22;4998;51.024;13.828;2023-10-08T10:52:20;16.70;90.90
9919;DHT22;4998;51.024;13.828;2023-10-08T10:54:59;16.80;90.70
9919;DHT22;4998;51.024;13.828;2023-10-08T10:57:31;16.80;90.40
9919;DHT22;4998;51.024;13.828;2023-10-08T11:00:05;16.90;90.30
9919;DHT22;4998;51.024;13.828;2023-10-08T11:02:57;16.90;90.00
9919;DHT22;4998;51.024;13.828;2023-10-08T11:05:28;16.90;89.60
9919;DHT22;4998;51.024;13.828;2023-10-08T11:07:55;17.00;89.70
9919;DHT22;4998;51.024;13.828;2023-10-08T11:10:31;17.00;89.70
9919;DHT22;4998;51.024;13.828;2023-10-08T11:12:58;17.10;89.10
9919;DHT22;4998;51.024;13.828;2023-10-08T11:15:28;17.10;88.00
9919;DHT22;4998;51.024;13.828;2023-10-08T11:18:07;17.10;86.70
9919;DHT22;4998;51.024;13.828;2023-10-08T11:20:35;17.10;87.40
9919;DHT22;4998;51.024;13.828;2023-10-08T11:23:05;17.10;86.80
9919;DHT22;4998;51.024;13.828;2023-10-08T11:25:53;17.10;87.10
9919;DHT22;4998;51.024;13.828;2023-10-08T11:28:20;17.10;86.70
9919;DHT22;4998;51.024;13.828;2023-10-08T11:30:51;17.10;87.20
9919;DHT22;4998;51.024;13.828;2023-10-08T11:33:19;17.20;86.40
9919;DHT22;4998;51.024;13.828;2023-10-08T11:36:00;17.20;86.10
9919;DHT22;4998;51.024;13.828;2023-10-08T11:38:37;17.20;85.90
9919;DHT22;4998;51.024;13.828;2023-10-08T11:41:11;17.20;85.30
9919;DHT22;4998;51.024;13.828;2023-10-08T11:43:47;17.20;85.40
9919;DHT22;4998;51.024;13.828;2023-10-08T11:46:21;17.20;85.50
9919;DHT22;4998;51.024;13.828;2023-10-08T11:48:51;17.20;85.10
9919;DHT22;4998;51.024;13.828;2023-10-08T11:51:18;17.30;85.00
9919;DHT22;4998;51.024;13.828;2023-10-08T11:53:49;17.30;84.30
9919;DHT22;4998;51.024;13.828;2023-10-08T11:56:17;17.30;84.60
9919;DHT22;4998;51.024;13.828;2023-10-08T11:58:48;17.40;84.40
9919;DHT22;4998;51.024;13.828;2023-10-08T12:01:17;17.40;83.30
9919;DHT22;4998;51.024;13.828;2023-10-08T12:03:45;17.50;82.10
9919;DHT22;4998;51.024;13.828;2023-10-08T12:06:15;17.60;81.50
9919;DHT22;4998;51.024;13.828;2023-10-08T12:08:45;17.60;81.20
9919;DHT22;4998;51.024;13.828;2023-10-08T12:11:13;17.70;81.00
9919;DHT22;4998;51.024;13.828;2023-10-08T12:13:40;17.70;79.70
9919;DHT22;4998;51.024;13.828;2023-10-08T12:16:11;17.70;78.80
9919;DHT22;4998;51.024;13.828;2023-10-08T12:18:45;17.70;78.40
9919;DHT22;4998;51.024;13.828;2023-10-08T12:21:15;17.70;78.50
9919;DHT22;4998;51.024;13.828;2023-10-08T12:23:43;17.70;77.70
9919;DHT22;4998;51.024;13.828;2023-10-08T12:26:12;17.70;77.90
9919;DHT22;4998;51.024;13.828;2023-10-08T12:28:42;17.80;79.70
9919;DHT22;4998;51.024;13.828;2023-10-08T12:31:12;17.80;77.10
9919;DHT22;4998;51.024;13.828;2023-10-08T12:33:42;17.80;77.50
9919;DHT22;4998;51.024;13.828;2023-10-08T12:36:11;17.90;77.00
9919;DHT22;4998;51.024;13.828;2023-10-08T12:38:40;17.90;76.70
9919;DHT22;4998;51.024;13.828;2023-10-08T12:41:08;17.90;76.20
9919;DHT22;4998;51.024;13.828;2023-10-08T12:43:39;17.90;76.30
9919;DHT22;4998;51.024;13.828;2023-10-08T12:46:08;18.00;75.30
9919;DHT22;4998;51.024;13.828;2023-10-08T12:48:44;18.00;74.50
9919;DHT22;4998;51.024;13.828;2023-10-08T12:51:15;18.00;75.20
9919;DHT22;4998;51.024;13.828;2023-10-08T12:53:42;18.00;75.10
9919;DHT22;4998;51.024;13.828;2023-10-08T12:56:16;18.00;75.00
9919;DHT22;4998;51.024;13.828;2023-10-08T12:58:47;18.00;74.60
9919;DHT22;4998;51.024;13.828;2023-10-08T13:01:15;18.10;75.20
9919;DHT22;4998;51.024;13.828;2023-10-08T13:03:44;18.10;75.50
9919;DHT22;4998;51.024;13.828;2023-10-08T13:06:15;18.10;75.30
9919;DHT22;4998;51.024;13.828;2023-10-08T13:08:48;18.10;75.00
9919;DHT22;4998;51.024;13.828;2023-10-08T13:11:18;18.20;74.80
9919;DHT22;4998;51.024;13.828;2023-10-08T13:13:49;18.20;74.70
9919;DHT22;4998;51.024;13.828;2023-10-08T13:16:16;18.30;74.30
9919;DHT22;4998;51.024;13.828;2023-10-08T13:18:43;18.30;74.00
9919;DHT22;4998;51.024;13.828;2023-10-08T13:21:11;18.30;72.70
9919;DHT22;4998;51.024;13.828;2023-10-08T13:23:39;18.30;72.70
9919;DHT22;4998;51.024;13.828;2023-10-08T13:26:07;18.30;72.20
9919;DHT22;4998;51.024;13.828;2023-10-08T13:28:35;18.30;71.80
9919;DHT22;4998;51.024;13.828;2023-10-08T13:31:02;18.20;70.80
9919;DHT22;4998;51.024;13.828;2023-10-08T13:33:36;18.30;71.10
9919;DHT22;4998;51.024;13.828;2023-10-08T13:36:06;18.20;71.10
9919;DHT22;4998;51.024;13.828;2023-10-08T13:38:38;18.20;70.60
9919;DHT22;4998;51.024;13.828;2023-10-08T13:41:07;18.20;69.60
9919;DHT22;4998;51.024;13.828;2023-10-08T13:43:41;18.20;67.00
9919;DHT22;4998;51.024;13.828;2023-10-08T13:46:12;18.10;66.40
9919;DHT22;4998;51.024;13.828;2023-10-08T13:48:40;18.10;67.20
9919;DHT22;4998;51.024;13.828;2023-10-08T13:51:08;18.10;67.20
9919;DHT22;4998;51.024;13.828;2023-10-08T13:53:41;18.10;66.90
9919;DHT22;4998;51.024;13.828;2023-10-08T13:56:11;18.10;66.20
9919;DHT22;4998;51.024;13.828;2023-10-08T13:58:39;18.10;65.40
9919;DHT22;4998;51.024;13.828;2023-10-08T14:01:12;18.10;65.80
9919;DHT22;4998;51.024;13.828;2023-10-08T14:03:46;18.10;64.80
9919;DHT22;4998;51.024;13.828;2023-10-08T14:06:14;18.10;64.00
9919;DHT22;4998;51.024;13.828;2023-10-08T14:08:43;18.00;64.00
9919;DHT22;4998;51.024;13.828;2023-10-08T14:11:18;18.00;63.80
9919;DHT22;4998;51.024;13.828;2023-10-08T14:13:45;18.00;64.30
9919;DHT22;4998;51.024;13.828;2023-10-08T14:16:13;18.00;64.70
9919;DHT22;4998;51.024;13.828;2023-10-08T14:18:43;18.00;64.80
9919;DHT22;4998;51.024;13.828;2023-10-08T14:21:16;18.00;65.00
9919;DHT22;4998;51.024;13.828;2023-10-08T14:23:45;18.10;65.10
9919;DHT22;4998;51.024;13.828;2023-10-08T14:26:13;18.10;64.70
9919;DHT22;4998;51.024;13.828;2023-10-08T14:28:41;18.10;65.00
9919;DHT22;4998;51.024;13.828;2023-10-08T14:31:16;18.10;65.00
9919;DHT22;4998;51.024;13.828;2023-10-08T14:33:46;18.00;64.80
9919;DHT22;4998;51.024;13.828;2023-10-08T14:36:30;18.00;65.00
9919;DHT22;4998;51.024;13.828;2023-10-08T14:39:17;18.00;65.00
9919;DHT22;4998;51.024;13.828;2023-10-08T14:42:10;18.00;64.90
9919;DHT22;4998;51.024;13.828;2023-10-08T14:44:55;18.00;65.20
9919;DHT22;4998;51.024;13.828;2023-10-08T14:47:22;18.00;65.50
9919;DHT22;4998;51.024;13.828;2023-10-08T14:49:49;18.00;65.40
9919;DHT22;4998;51.024;13.828;2023-10-08T14:52:16;18.10;64.80
9919;DHT22;4998;51.024;13.828;2023-10-08T14:54:45;18.10;64.70
9919;DHT22;4998;51.024;13.828;2023-10-08T14:57:13;18.10;65.20
9919;DHT22;4998;51.024;13.828;2023-10-08T14:59:41;18.10;65.60
9919;DHT22;4998;51.024;13.828;2023-10-08T15:02:08;18.10;65.80
9919;DHT22;4998;51.024;13.828;2023-10-08T15:04:36;18.10;65.80
9919;DHT22;4998;51.024;13.828;2023-10-08T15:07:05;18.10;66.10
9919;DHT22;4998;51.024;13.828;2023-10-08T15:09:34;18.20;66.20
9919;DHT22;4998;51.024;13.828;2023-10-08T15:12:03;18.20;65.80
9919;DHT22;4998;51.024;13.828;2023-10-08T15:14:31;18.20;65.50
9919;DHT22;4998;51.024;13.828;2023-10-08T15:16:59;18.20;65.60
9919;DHT22;4998;51.024;13.828;2023-10-08T15:19:27;18.20;65.50
9919;DHT22;4998;51.024;13.828;2023-10-08T15:21:54;18.20;65.50
9919;DHT22;4998;51.024;13.828;2023-10-08T15:24:24;18.20;65.40
9919;DHT22;4998;51.024;13.828;2023-10-08T15:26:51;18.20;65.50
9919;DHT22;4998;51.024;13.828;2023-10-08T15:29:21;18.10;65.40
9919;DHT22;4998;51.024;13.828;2023-10-08T15:31:51;18.10;65.20
9919;DHT22;4998;51.024;13.828;2023-10-08T15:34:20;18.10;65.40
9919;DHT22;4998;51.024;13.828;2023-10-08T15:36:48;18.00;65.50
9919;DHT22;4998;51.024;13.828;2023-10-08T15:39:15;18.00;65.50
9919;DHT22;4998;51.024;13.828;2023-10-08T15:41:48;18.00;65.50
9919;DHT22;4998;51.024;13.828;2023-10-08T15:44:15;18.00;65.80
9919;DHT22;4998;51.024;13.828;2023-10-08T15:46:44;17.90;65.80
9919;DHT22;4998;51.024;13.828;2023-10-08T15:49:11;17.80;65.80
9919;DHT22;4998;51.024;13.828;2023-10-08T15:51:39;17.80;66.00
9919;DHT22;4998;51.024;13.828;2023-10-08T15:54:06;17.80;66.20
9919;DHT22;4998;51.024;13.828;2023-10-08T15:56:33;17.80;66.20
9919;DHT22;4998;51.024;13.828;2023-10-08T15:59:01;17.70;66.20
9919;DHT22;4998;51.024;13.828;2023-10-08T16:01:29;17.70;66.30
9919;DHT22;4998;51.024;13.828;2023-10-08T16:03:57;17.70;66.40
9919;DHT22;4998;51.024;13.828;2023-10-08T16:06:24;17.70;66.30
9919;DHT22;4998;51.024;13.828;2023-10-08T16:08:51;17.60;66.50
9919;DHT22;4998;51.024;13.828;2023-10-08T16:11:18;17.60;66.80
9919;DHT22;4998;51.024;13.828;2023-10-08T16:13:46;17.50;67.10